This is the latest recevied weather packets stored in our database for station/object KF0EZB. If no packets are shown the sender has not sent any weather packets the latest 10 day(s).
| Time | Temp. | Humidity | Pressure | Rain* | Wind** | Luminosity | Snow |
|---|---|---|---|---|---|---|---|
| 1777864846 | 22.78° C | 30% | 1005.8 hPa | 0 mm | - | 0 W/m² | - |
| 1777864543 | 22.78° C | 30% | 1005.8 hPa | 0 mm | - | 0 W/m² | - |
| 1777864239 | 22.22° C | 30% | 1005.5 hPa | 0 mm | - | 0 W/m² | - |
| 1777863937 | 21.67° C | 31% | 1005.5 hPa | 0 mm | - | 0 W/m² | - |
| 1777863632 | 21.67° C | 30% | 1005.8 hPa | 0 mm | - | 0 W/m² | - |
| 1777863330 | 21.67° C | 30% | 1005.7 hPa | 0 mm | - | 0 W/m² | - |
| 1777863026 | 21.67° C | 30% | 1005.7 hPa | 0 mm | - | 0 W/m² | - |
| 1777862724 | 21.11° C | 31% | 1005.5 hPa | 0 mm | - | 0 W/m² | - |
| 1777862420 | 21.11° C | 32% | 1005.6 hPa | 0 mm | - | 0 W/m² | - |
| 1777862117 | 21.11° C | 32% | 1005.5 hPa | 0 mm | - | 0 W/m² | - |
| 1777861813 | 21.11° C | 31% | 1005.8 hPa | 0 mm | - | 0 W/m² | - |
| 1777861509 | 21.11° C | 31% | 1005.3 hPa | 0 mm | - | 0 W/m² | - |
| 1777861206 | 21.67° C | 31% | 1005.8 hPa | 0 mm | - | 0 W/m² | - |
| 1777860903 | 21.67° C | 31% | 1005.5 hPa | 0 mm | - | 0 W/m² | - |
| 1777860600 | 21.67° C | 31% | 1005.5 hPa | 0 mm | - | 0 W/m² | - |
| 1777860296 | 21.67° C | 30% | 1005.4 hPa | 0 mm | - | 0 W/m² | - |
| 1777859993 | 22.22° C | 30% | 1005.6 hPa | 0 mm | - | 0 W/m² | - |
| 1777859689 | 22.22° C | 30% | 1005.5 hPa | 0 mm | - | 0 W/m² | - |
| 1777859385 | 22.22° C | 30% | 1005.3 hPa | 0 mm | - | 0 W/m² | - |
| 1777859082 | 22.78° C | 29% | 1005.5 hPa | 0 mm | - | 0 W/m² | - |
| 1777858778 | 22.78° C | 29% | 1005.4 hPa | 0 mm | - | 0 W/m² | - |
| 1777858477 | 23.33° C | 29% | 1005.3 hPa | 0 mm | - | 0 W/m² | - |
| 1777858173 | 23.33° C | 28% | 1005.3 hPa | 0 mm | - | 2 W/m² | - |
| 1777857871 | 23.89° C | 27% | 1005.5 hPa | 0 mm | - | 3 W/m² | - |
| 1777857568 | 24.44° C | 26% | 1005.5 hPa | 0 mm | - | 7 W/m² | - |
* Rain latest hour (hover to see other rain measurements)
** Current wind speed in m/s (hover to see current wind gust speed)